createdAt,value
2023-03-10T00:01:13.770Z,77.07
2023-03-10T00:06:15.042Z,77.61
2023-03-10T00:11:16.340Z,78.55
2023-03-10T00:16:17.964Z,77.43
2023-03-10T00:21:19.246Z,77.83
2023-03-10T00:26:20.618Z,76.97
2023-03-10T00:31:21.943Z,76.92
2023-03-10T00:36:23.329Z,76.33
2023-03-10T00:41:24.584Z,76.44
2023-03-10T00:46:25.931Z,75.89
2023-03-10T00:51:27.232Z,76.36
2023-03-10T00:56:28.526Z,77.25
2023-03-10T01:01:29.905Z,77.01
2023-03-10T01:06:31.213Z,77.22
2023-03-10T01:11:32.503Z,77.08
2023-03-10T01:16:33.801Z,76.31
2023-03-10T01:21:35.045Z,76.35
2023-03-10T01:26:36.336Z,76.14
2023-03-10T01:31:37.609Z,76.58
2023-03-10T01:36:38.848Z,78.67
2023-03-10T01:41:40.117Z,77.77
2023-03-10T01:46:41.434Z,77.74
2023-03-10T01:51:42.812Z,77.12
2023-03-10T01:56:44.025Z,77.01
2023-03-10T02:01:45.342Z,77.32
2023-03-10T02:06:46.664Z,77.58
2023-03-10T02:11:47.901Z,79.14
2023-03-10T02:16:49.128Z,79.13
2023-03-10T02:21:52.002Z,79.19
2023-03-10T02:26:53.310Z,79.87
2023-03-10T02:31:55.096Z,79.05
2023-03-10T02:36:56.327Z,78.77
2023-03-10T02:41:57.580Z,81.87
2023-03-10T02:46:58.884Z,81.57
2023-03-10T02:52:00.177Z,80.93
2023-03-10T02:57:01.540Z,80.30
2023-03-10T03:02:02.797Z,80.83
2023-03-10T03:07:04.288Z,81.33
2023-03-10T03:12:05.633Z,80.99
2023-03-10T03:17:06.844Z,80.65
2023-03-10T03:22:08.088Z,81.04
2023-03-10T03:27:09.333Z,80.81
2023-03-10T03:32:10.693Z,80.12
2023-03-10T03:37:11.994Z,80.87
2023-03-10T03:42:13.303Z,80.51
2023-03-10T03:47:14.546Z,80.03
2023-03-10T03:52:15.865Z,80.59
2023-03-10T03:57:17.135Z,80.09
2023-03-10T04:02:18.416Z,79.20
2023-03-10T04:07:19.676Z,79.44
2023-03-10T04:12:20.915Z,79.30
2023-03-10T04:17:22.135Z,79.57
2023-03-10T04:22:23.388Z,79.53
2023-03-10T04:27:24.640Z,79.95
2023-03-10T04:32:25.929Z,80.68
2023-03-10T04:37:27.297Z,82.14
2023-03-10T04:42:28.505Z,83.85
2023-03-10T04:47:29.706Z,82.90
2023-03-10T04:52:30.913Z,82.49
2023-03-10T04:57:32.118Z,81.32
2023-03-10T05:02:33.422Z,80.44
2023-03-10T05:07:34.663Z,80.55
2023-03-10T05:12:35.948Z,80.12
2023-03-10T05:17:37.213Z,80.94
2023-03-10T05:22:38.530Z,81.48
2023-03-10T05:27:39.758Z,82.20
2023-03-10T05:32:41.009Z,83.05
2023-03-10T05:37:42.363Z,84.67
2023-03-10T05:42:43.584Z,85.74
2023-03-10T05:47:46.600Z,87.27
2023-03-10T05:52:47.899Z,88.99
2023-03-10T05:57:49.091Z,90.91
2023-03-10T06:02:50.408Z,90.94
2023-03-10T06:07:51.809Z,90.75
2023-03-10T06:12:53.280Z,91.14
2023-03-10T06:17:54.622Z,90.48
2023-03-10T06:22:55.903Z,90.26
2023-03-10T06:27:57.250Z,89.28
2023-03-10T06:32:58.550Z,88.89
2023-03-10T06:38:00.408Z,88.61
2023-03-10T06:43:01.648Z,88.30
2023-03-10T06:48:02.862Z,88.74
2023-03-10T06:53:04.097Z,88.88
2023-03-10T06:58:05.368Z,89.21
2023-03-10T07:03:07.003Z,89.28
2023-03-10T07:08:08.237Z,89.96
2023-03-10T07:13:10.711Z,89.44
2023-03-10T07:18:11.946Z,88.37
2023-03-10T07:23:13.186Z,87.40
2023-03-10T07:28:14.490Z,86.37
2023-03-10T07:33:15.774Z,85.27
2023-03-10T07:38:17.156Z,85.27
2023-03-10T07:43:18.397Z,85.40
2023-03-10T07:48:19.723Z,85.67
2023-03-10T07:53:20.952Z,86.34
2023-03-10T07:58:22.174Z,87.30
2023-03-10T08:03:23.485Z,86.17
2023-03-10T08:08:24.774Z,85.62
2023-03-10T08:13:26.014Z,84.84
2023-03-10T08:18:27.322Z,85.56
2023-03-10T08:23:28.629Z,84.84
2023-03-10T08:28:30.664Z,84.20
2023-03-10T08:33:31.916Z,83.70
2023-03-10T08:38:33.247Z,82.64
2023-03-10T08:43:34.504Z,82.15
2023-03-10T08:48:35.784Z,81.36
2023-03-10T08:53:37.029Z,80.61
2023-03-10T08:58:38.267Z,78.40
2023-03-10T09:03:39.853Z,76.88
2023-03-10T09:08:41.480Z,75.57
2023-03-10T09:13:42.726Z,76.75
2023-03-10T09:18:43.973Z,77.70
2023-03-10T09:23:45.264Z,78.34
2023-03-10T09:28:49.252Z,80.72
2023-03-10T09:33:50.620Z,79.09
2023-03-10T09:38:51.905Z,76.36
2023-03-10T09:43:55.417Z,73.63
2023-03-10T09:48:56.721Z,70.26
2023-03-10T09:53:58.237Z,67.08
2023-03-10T09:58:59.811Z,63.53
2023-03-10T10:04:01.208Z,63.19
2023-03-10T10:09:05.073Z,61.76
2023-03-10T10:14:09.429Z,61.68
2023-03-10T10:19:12.407Z,59.30
2023-03-10T10:24:13.727Z,58.51
2023-03-10T10:29:15.070Z,57.97
2023-03-10T10:34:18.598Z,57.08
2023-03-10T10:39:20.876Z,57.89
2023-03-10T10:44:22.181Z,58.25
2023-03-10T10:49:23.589Z,59.94
2023-03-10T10:54:31.050Z,60.65
2023-03-10T10:59:32.292Z,62.07
2023-03-10T11:04:33.565Z,61.85
2023-03-10T11:09:34.825Z,60.80
2023-03-10T11:14:36.088Z,59.92
2023-03-10T11:19:37.365Z,60.92
2023-03-10T11:24:38.649Z,59.16
2023-03-10T11:29:39.993Z,58.75
2023-03-10T11:34:41.276Z,55.70
2023-03-10T11:39:43.736Z,52.71
2023-03-10T11:44:44.976Z,51.45
2023-03-10T11:49:47.352Z,51.55
2023-03-10T11:54:48.714Z,50.46
2023-03-10T11:59:49.970Z,50.40
2023-03-10T12:04:51.246Z,52.58
2023-03-10T12:09:53.997Z,52.29
2023-03-10T12:14:55.332Z,51.98
2023-03-10T12:19:56.581Z,50.54
2023-03-10T12:24:57.844Z,49.70
2023-03-10T12:29:59.205Z,50.54
2023-03-10T12:35:00.470Z,51.05
2023-03-10T12:40:01.755Z,52.64
2023-03-10T12:45:05.318Z,53.16
2023-03-10T12:50:07.691Z,54.07
2023-03-10T12:55:10.325Z,55.83
2023-03-10T13:00:12.510Z,55.73
2023-03-10T13:05:14.495Z,53.31
2023-03-10T13:10:15.749Z,53.38
2023-03-10T13:15:17.001Z,54.70
2023-03-10T13:20:18.247Z,52.73
2023-03-10T13:25:19.533Z,53.51
2023-03-10T13:30:21.189Z,52.80
2023-03-10T13:35:22.621Z,53.45
2023-03-10T13:40:23.973Z,53.88
2023-03-10T13:45:28.931Z,52.70
2023-03-10T13:50:31.089Z,52.01
2023-03-10T13:55:32.440Z,50.02
2023-03-10T14:00:34.810Z,48.46
2023-03-10T14:05:44.494Z,50.94
2023-03-10T14:10:55.996Z,51.88
2023-03-10T14:15:57.235Z,52.41
2023-03-10T14:20:58.524Z,53.34
2023-03-10T14:25:59.902Z,52.64
2023-03-10T14:31:02.480Z,51.79
2023-03-10T14:36:05.946Z,52.93
2023-03-10T14:41:07.231Z,52.88
2023-03-10T14:46:08.777Z,53.13
2023-03-10T14:51:13.200Z,54.74
2023-03-10T14:56:15.716Z,56.03
2023-03-10T15:01:17.574Z,57.38
2023-03-10T15:06:18.972Z,61.83
2023-03-10T15:11:35.722Z,62.06
2023-03-10T15:16:38.071Z,59.98
2023-03-10T15:21:39.372Z,59.84
2023-03-10T15:26:40.731Z,59.73
2023-03-10T15:31:42.074Z,58.45
2023-03-10T15:36:43.412Z,60.30
2023-03-10T15:41:45.167Z,60.49
2023-03-10T15:46:47.965Z,60.29
2023-03-10T15:51:49.257Z,63.35
2023-03-10T15:56:50.490Z,65.10
2023-03-10T16:01:52.650Z,66.77
2023-03-10T16:06:54.028Z,66.68
2023-03-10T16:11:55.313Z,66.41
2023-03-10T16:16:58.523Z,66.77
2023-03-10T16:21:59.922Z,66.88
2023-03-10T16:27:01.188Z,68.94
2023-03-10T16:32:02.645Z,69.09
2023-03-10T16:37:03.955Z,70.65
2023-03-10T16:42:05.191Z,74.07
2023-03-10T16:47:06.466Z,76.24
2023-03-10T16:52:10.646Z,79.22
2023-03-10T16:57:12.272Z,80.07
2023-03-10T17:02:13.543Z,80.42
2023-03-10T17:07:15.174Z,80.35
2023-03-10T17:12:16.531Z,81.25
2023-03-10T17:17:17.791Z,82.07
2023-03-10T17:22:18.993Z,81.87
2023-03-10T17:27:20.229Z,81.56
2023-03-10T17:32:21.766Z,81.37
2023-03-10T17:37:23.285Z,83.42
2023-03-10T17:42:25.435Z,84.13
2023-03-10T17:47:26.690Z,83.74
2023-03-10T17:52:28.013Z,84.03
2023-03-10T17:57:29.373Z,81.69
2023-03-10T18:02:30.657Z,83.27
2023-03-10T18:07:31.891Z,84.13
2023-03-10T18:12:33.106Z,83.71
2023-03-10T18:17:34.529Z,83.51
2023-03-10T18:22:35.794Z,79.53
2023-03-10T18:27:37.047Z,80.35
2023-03-10T18:32:38.346Z,80.43
2023-03-10T18:37:39.661Z,83.88
2023-03-10T18:42:44.142Z,85.42
2023-03-10T18:47:46.910Z,84.22
2023-03-10T18:52:48.297Z,83.22
2023-03-10T18:57:49.595Z,81.47
2023-03-10T19:02:50.862Z,81.46
2023-03-10T19:07:52.148Z,79.44
2023-03-10T19:12:53.398Z,78.94
2023-03-10T19:17:54.634Z,77.20
2023-03-10T19:22:55.862Z,78.39
2023-03-10T19:27:57.125Z,77.09
2023-03-10T19:32:58.673Z,76.10
2023-03-10T19:38:00.475Z,75.12
2023-03-10T19:43:01.889Z,74.97
2023-03-10T19:48:03.414Z,74.06
2023-03-10T19:53:04.893Z,74.24
2023-03-10T19:58:06.249Z,73.44
2023-03-10T20:03:07.574Z,72.88
2023-03-10T20:08:08.931Z,71.74
2023-03-10T20:13:10.148Z,71.45
2023-03-10T20:18:11.410Z,72.29
2023-03-10T20:23:12.745Z,71.24
2023-03-10T20:28:14.099Z,70.55
2023-03-10T20:33:15.373Z,68.98
2023-03-10T20:38:16.620Z,70.47
2023-03-10T20:43:17.864Z,70.05
2023-03-10T20:48:19.217Z,71.50
2023-03-10T20:53:20.470Z,70.15
2023-03-10T20:58:21.760Z,72.24
2023-03-10T21:03:23.116Z,71.47
2023-03-10T21:08:24.506Z,72.50
2023-03-10T21:13:25.726Z,73.43
2023-03-10T21:18:27.092Z,79.01
2023-03-10T21:23:28.533Z,81.95
2023-03-10T21:28:29.891Z,84.18
2023-03-10T21:33:31.251Z,81.34
2023-03-10T21:38:32.535Z,80.37
2023-03-10T21:43:33.853Z,81.21
2023-03-10T21:48:35.221Z,79.17
2023-03-10T21:53:36.541Z,77.96
2023-03-10T21:58:37.801Z,78.66
2023-03-10T22:03:39.109Z,78.01
2023-03-10T22:08:40.677Z,79.71
2023-03-10T22:18:57.114Z,81.76
2023-03-10T22:23:59.872Z,77.67
2023-03-10T22:29:01.406Z,74.99
2023-03-10T22:34:02.642Z,72.66
2023-03-10T22:39:03.966Z,69.87
2023-03-10T22:44:11.912Z,69.95
2023-03-10T22:49:13.180Z,67.34
2023-03-10T22:54:15.607Z,66.97
2023-03-10T22:59:16.808Z,65.92
2023-03-10T23:04:18.117Z,64.42
2023-03-10T23:09:19.405Z,64.73
2023-03-10T23:14:20.637Z,66.31
2023-03-10T23:19:21.919Z,65.87
2023-03-10T23:24:23.245Z,66.22
2023-03-10T23:29:24.618Z,60.20
2023-03-10T23:34:25.833Z,56.71
2023-03-10T23:39:27.071Z,56.86
2023-03-10T23:44:28.390Z,57.78
2023-03-10T23:49:29.659Z,58.39
2023-03-10T23:54:30.926Z,58.84
2023-03-10T23:59:32.177Z,58.82
